<?xml version="1.0" encoding="UTF-8" standalone="no" ?><gpx xmlns="http://www.topografix.com/GPX/1/1" xmlns:gpxx="http://www.garmin.com/xmlschemas/GpxExtensions/v3" xmlns:wptx1="http://www.garmin.com/xmlschemas/WaypointExtension/v1" xmlns:gpxtpx="http://www.garmin.com/xmlschemas/TrackPointExtension/v1" creator="GuideVTT.com" version="1.1" xmlns:xsi="http://www.w3.org/2001/XMLSchema-instance" xsi:schemaLocation="http://www.topografix.com/GPX/1/1 http://www.topografix.com/GPX/1/1/gpx.xsd http://www.garmin.com/xmlschemas/GpxExtensions/v3 http://www8.garmin.com/xmlschemas/GpxExtensionsv3.xsd http://www.garmin.com/xmlschemas/WaypointExtension/v1 http://www8.garmin.com/xmlschemas/WaypointExtensionv1.xsd http://www.garmin.com/xmlschemas/TrackPointExtension/v1 http://www.garmin.com/xmlschemas/TrackPointExtensionv1.xsd">
<metadata><link href="http://www.garmin.com"><text>Garmin International</text></link><time>2013-06-22T15:13:50Z</time></metadata>
<trk><name>rp_2007_7.gpx</name><extensions><gpxx:TrackExtension><gpxx:DisplayColor>Cyan</gpxx:DisplayColor></gpxx:TrackExtension></extensions><trkseg>
<trkpt lat="47.41003990" lon="7.07186940"><ele>465.896118</ele><time>2007-06-19T15:47:36Z</time></trkpt>
<trkpt lat="47.40969660" lon="7.07154750"><ele>466.376709</ele><time>2007-06-19T15:47:51Z</time></trkpt>
<trkpt lat="47.40916010" lon="7.07096820"><ele>463.012085</ele><time>2007-06-19T15:48:08Z</time></trkpt>
<trkpt lat="47.40900990" lon="7.07073210"><ele>463.012085</ele><time>2007-06-19T15:48:14Z</time></trkpt>
<trkpt lat="47.40821600" lon="7.06993820"><ele>464.454102</ele><time>2007-06-19T15:48:39Z</time></trkpt>
<trkpt lat="47.40722890" lon="7.06890820"><ele>464.454102</ele><time>2007-06-19T15:49:11Z</time></trkpt>
<trkpt lat="47.40712170" lon="7.06854340"><ele>464.454102</ele><time>2007-06-19T15:49:24Z</time></trkpt>
<trkpt lat="47.40686420" lon="7.06802850"><ele>510.59729</ele><time>2007-06-19T15:49:35Z</time></trkpt>
<trkpt lat="47.40600590" lon="7.06736330"><ele>510.59729</ele><time>2007-06-19T15:50:09Z</time></trkpt>
<trkpt lat="47.40542650" lon="7.06717010"><ele>494.735596</ele><time>2007-06-19T15:50:27Z</time></trkpt>
<trkpt lat="47.40499730" lon="7.06723450"><ele>490.890381</ele><time>2007-06-19T15:50:37Z</time></trkpt>
<trkpt lat="47.40431070" lon="7.06717010"><ele>486.564453</ele><time>2007-06-19T15:50:49Z</time></trkpt>
<trkpt lat="47.40366700" lon="7.06701990"><ele>484.641846</ele><time>2007-06-19T15:51:00Z</time></trkpt>
<trkpt lat="47.40287300" lon="7.06680540"><ele>484.641846</ele><time>2007-06-19T15:51:14Z</time></trkpt>
<trkpt lat="47.40276580" lon="7.06676240"><ele>484.641846</ele><time>2007-06-19T15:51:16Z</time></trkpt>
<trkpt lat="47.40250830" lon="7.06650500"><ele>485.603027</ele><time>2007-06-19T15:51:22Z</time></trkpt>
<trkpt lat="47.40212200" lon="7.06644060"><ele>486.564453</ele><time>2007-06-19T15:51:31Z</time></trkpt>
<trkpt lat="47.40188600" lon="7.06624750"><ele>486.564453</ele><time>2007-06-19T15:51:37Z</time></trkpt>
<trkpt lat="47.40154270" lon="7.06575390"><ele>486.564453</ele><time>2007-06-19T15:51:48Z</time></trkpt>
<trkpt lat="47.40062000" lon="7.06463810"><ele>491.370972</ele><time>2007-06-19T15:52:17Z</time></trkpt>
<trkpt lat="47.40016940" lon="7.06423040"><ele>495.216187</ele><time>2007-06-19T15:52:31Z</time></trkpt>
<trkpt lat="47.39948270" lon="7.06371550"><ele>496.177734</ele><time>2007-06-19T15:52:46Z</time></trkpt>
<trkpt lat="47.39933250" lon="7.06377980"><ele>496.177734</ele><time>2007-06-19T15:52:50Z</time></trkpt>
<trkpt lat="47.39922520" lon="7.06410170"><ele>496.177734</ele><time>2007-06-19T15:53:00Z</time></trkpt>
<trkpt lat="47.39911790" lon="7.06511020"><ele>495.696899</ele><time>2007-06-19T15:53:19Z</time></trkpt>
<trkpt lat="47.39911790" lon="7.06541060"><ele>495.696899</ele><time>2007-06-19T15:53:23Z</time></trkpt>
<trkpt lat="47.39817380" lon="7.06566810"><ele>491.851685</ele><time>2007-06-19T15:53:37Z</time></trkpt>
<trkpt lat="47.39810940" lon="7.06601140"><ele>492.332397</ele><time>2007-06-19T15:53:42Z</time></trkpt>
<trkpt lat="47.39843130" lon="7.06656930"><ele>492.332397</ele><time>2007-06-19T15:53:49Z</time></trkpt>
<trkpt lat="47.39911790" lon="7.07047460"><ele>475.509277</ele><time>2007-06-19T15:54:20Z</time></trkpt>
<trkpt lat="47.39918230" lon="7.07101110"><ele>473.58667</ele><time>2007-06-19T15:54:26Z</time></trkpt>
<trkpt lat="47.39901070" lon="7.07107540"><ele>474.067261</ele><time>2007-06-19T15:54:30Z</time></trkpt>
<trkpt lat="47.39776610" lon="7.07105400"><ele>480.315918</ele><time>2007-06-19T15:55:01Z</time></trkpt>
<trkpt lat="47.39680050" lon="7.07109690"><ele>487.525635</ele><time>2007-06-19T15:55:27Z</time></trkpt>
<trkpt lat="47.39626410" lon="7.07101110"><ele>489.448364</ele><time>2007-06-19T15:55:41Z</time></trkpt>
<trkpt lat="47.39398960" lon="7.07043170"><ele>488.967773</ele><time>2007-06-19T15:56:24Z</time></trkpt>
<trkpt lat="47.39375350" lon="7.07021710"><ele>487.045044</ele><time>2007-06-19T15:56:28Z</time></trkpt>
<trkpt lat="47.39349600" lon="7.07032440"><ele>484.641846</ele><time>2007-06-19T15:56:32Z</time></trkpt>
<trkpt lat="47.39349600" lon="7.07073210"><ele>482.719238</ele><time>2007-06-19T15:56:36Z</time></trkpt>
<trkpt lat="47.39336730" lon="7.07083940"><ele>480.796631</ele><time>2007-06-19T15:56:39Z</time></trkpt>
<trkpt lat="47.39313130" lon="7.07064630"><ele>483.199829</ele><time>2007-06-19T15:56:44Z</time></trkpt>
<trkpt lat="47.39246610" lon="7.07032440"><ele>488.00647</ele><time>2007-06-19T15:57:02Z</time></trkpt>
<trkpt lat="47.39184380" lon="7.06995960"><ele>490.40979</ele><time>2007-06-19T15:57:19Z</time></trkpt>
<trkpt lat="47.39143610" lon="7.06944470"><ele>493.293579</ele><time>2007-06-19T15:57:34Z</time></trkpt>
<trkpt lat="47.39113570" lon="7.06875800"><ele>496.658325</ele><time>2007-06-19T15:57:51Z</time></trkpt>
<trkpt lat="47.39087820" lon="7.06832890"><ele>497.138916</ele><time>2007-06-19T15:58:03Z</time></trkpt>
<trkpt lat="47.39066360" lon="7.06781390"><ele>499.061523</ele><time>2007-06-19T15:58:15Z</time></trkpt>
<trkpt lat="47.39051340" lon="7.06708430"><ele>501.464844</ele><time>2007-06-19T15:58:29Z</time></trkpt>
<trkpt lat="47.39040610" lon="7.06624750"><ele>503.868164</ele><time>2007-06-19T15:58:45Z</time></trkpt>
<trkpt lat="47.38982680" lon="7.06476690"><ele>509.155396</ele><time>2007-06-19T15:59:18Z</time></trkpt>
<trkpt lat="47.38948350" lon="7.06423040"><ele>512.52002</ele><time>2007-06-19T15:59:34Z</time></trkpt>
<trkpt lat="47.38916160" lon="7.06365110"><ele>515.404053</ele><time>2007-06-19T15:59:51Z</time></trkpt>
<trkpt lat="47.38821740" lon="7.06214900"><ele>527.42041</ele><time>2007-06-19T16:00:48Z</time></trkpt>
<trkpt lat="47.38778830" lon="7.06139800"><ele>537.514282</ele><time>2007-06-19T16:01:18Z</time></trkpt>
<trkpt lat="47.38723040" lon="7.06056120"><ele>539.43689</ele><time>2007-06-19T16:01:52Z</time></trkpt>
<trkpt lat="47.38682270" lon="7.06002470"><ele>537.994995</ele><time>2007-06-19T16:02:16Z</time></trkpt>
<trkpt lat="47.38669400" lon="7.05966000"><ele>542.801514</ele><time>2007-06-19T16:02:28Z</time></trkpt>
<trkpt lat="47.38637210" lon="7.05923080"><ele>542.320923</ele><time>2007-06-19T16:02:46Z</time></trkpt>
<trkpt lat="47.38562110" lon="7.05888750"><ele>547.608154</ele><time>2007-06-19T16:03:23Z</time></trkpt>
<trkpt lat="47.38532070" lon="7.05888750"><ele>556.26001</ele><time>2007-06-19T16:03:42Z</time></trkpt>
<trkpt lat="47.38517050" lon="7.05890890"><ele>556.26001</ele><time>2007-06-19T16:03:51Z</time></trkpt>
<trkpt lat="47.38493440" lon="7.05905910"><ele>556.740723</ele><time>2007-06-19T16:04:09Z</time></trkpt>
<trkpt lat="47.38465550" lon="7.05929520"><ele>559.624756</ele><time>2007-06-19T16:04:31Z</time></trkpt>
<trkpt lat="47.38448380" lon="7.05938100"><ele>561.06665</ele><time>2007-06-19T16:04:52Z</time></trkpt>
<trkpt lat="47.38446240" lon="7.05880170"><ele>563.469971</ele><time>2007-06-19T16:05:25Z</time></trkpt>
<trkpt lat="47.38450530" lon="7.05863000"><ele>563.469971</ele><time>2007-06-19T16:05:33Z</time></trkpt>
<trkpt lat="47.38454820" lon="7.05792190"><ele>565.873291</ele><time>2007-06-19T16:05:56Z</time></trkpt>
<trkpt lat="47.38452670" lon="7.05712800"><ele>570.679688</ele><time>2007-06-19T16:06:21Z</time></trkpt>
<trkpt lat="47.38441940" lon="7.05678460"><ele>575.486328</ele><time>2007-06-19T16:06:41Z</time></trkpt>
<trkpt lat="47.38418340" lon="7.05672030"><ele>575.486328</ele><time>2007-06-19T16:06:59Z</time></trkpt>
<trkpt lat="47.38358260" lon="7.05717090"><ele>580.292969</ele><time>2007-06-19T16:07:46Z</time></trkpt>
<trkpt lat="47.38332510" lon="7.05721380"><ele>580.292969</ele><time>2007-06-19T16:08:06Z</time></trkpt>
<trkpt lat="47.38336800" lon="7.05697770"><ele>580.773682</ele><time>2007-06-19T16:08:15Z</time></trkpt>
<trkpt lat="47.38338950" lon="7.05581900"><ele>610.09375</ele><time>2007-06-19T16:08:57Z</time></trkpt>
<trkpt lat="47.38326070" lon="7.05566880"><ele>611.055176</ele><time>2007-06-19T16:09:06Z</time></trkpt>
<trkpt lat="47.38317490" lon="7.05564740"><ele>613.458496</ele><time>2007-06-19T16:09:13Z</time></trkpt>
<trkpt lat="47.38263850" lon="7.05607650"><ele>623.071777</ele><time>2007-06-19T16:09:54Z</time></trkpt>
<trkpt lat="47.38214490" lon="7.05637690"><ele>631.24292</ele><time>2007-06-19T16:10:18Z</time></trkpt>
<trkpt lat="47.38184450" lon="7.05631260"><ele>635.088135</ele><time>2007-06-19T16:10:38Z</time></trkpt>
<trkpt lat="47.38135100" lon="7.05635550"><ele>642.298096</ele><time>2007-06-19T16:11:12Z</time></trkpt>
<trkpt lat="47.38117930" lon="7.05624820"><ele>645.181885</ele><time>2007-06-19T16:11:26Z</time></trkpt>
<trkpt lat="47.38092180" lon="7.05620530"><ele>646.143311</ele><time>2007-06-19T16:11:40Z</time></trkpt>
<trkpt lat="47.37997770" lon="7.05573320"><ele>647.585205</ele><time>2007-06-19T16:12:37Z</time></trkpt>
<trkpt lat="47.37980600" lon="7.05551860"><ele>647.585205</ele><time>2007-06-19T16:12:44Z</time></trkpt>
<trkpt lat="47.37884040" lon="7.05515380"><ele>648.065918</ele><time>2007-06-19T16:13:07Z</time></trkpt>
<trkpt lat="47.37873320" lon="7.05489640"><ele>648.065918</ele><time>2007-06-19T16:13:20Z</time></trkpt>
<trkpt lat="47.37849710" lon="7.05536840"><ele>648.065918</ele><time>2007-06-19T16:13:27Z</time></trkpt>
<trkpt lat="47.37733840" lon="7.05646280"><ele>645.662598</ele><time>2007-06-19T16:13:31Z</time></trkpt>
<trkpt lat="47.37763880" lon="7.05699920"><ele>643.73999</ele><time>2007-06-19T16:13:39Z</time></trkpt>
<trkpt lat="47.37763880" lon="7.05723520"><ele>644.220703</ele><time>2007-06-19T16:13:47Z</time></trkpt>
<trkpt lat="47.37768170" lon="7.05749270"><ele>645.181885</ele><time>2007-06-19T16:13:58Z</time></trkpt>
<trkpt lat="47.37761740" lon="7.05850120"><ele>651.43042</ele><time>2007-06-19T16:14:41Z</time></trkpt>
<trkpt lat="47.37770320" lon="7.05957410"><ele>662.485596</ele><time>2007-06-19T16:15:14Z</time></trkpt>
<trkpt lat="47.37770320" lon="7.06068990"><ele>668.734375</ele><time>2007-06-19T16:15:51Z</time></trkpt>
<trkpt lat="47.37768170" lon="7.06126930"><ele>671.618164</ele><time>2007-06-19T16:16:11Z</time></trkpt>
<trkpt lat="47.37763880" lon="7.06154820"><ele>674.021484</ele><time>2007-06-19T16:16:23Z</time></trkpt>
<trkpt lat="47.37763880" lon="7.06195590"><ele>677.38623</ele><time>2007-06-19T16:16:40Z</time></trkpt>
<trkpt lat="47.37748860" lon="7.06309320"><ele>679.789307</ele><time>2007-06-19T16:17:28Z</time></trkpt>
<trkpt lat="47.37748860" lon="7.06343650"><ele>679.308594</ele><time>2007-06-19T16:17:47Z</time></trkpt>
<trkpt lat="47.37757440" lon="7.06418750"><ele>681.231445</ele><time>2007-06-19T16:18:22Z</time></trkpt>
<trkpt lat="47.37757440" lon="7.06448790"><ele>684.596191</ele><time>2007-06-19T16:18:38Z</time></trkpt>
<trkpt lat="47.37744570" lon="7.06468110"><ele>691.805908</ele><time>2007-06-19T16:18:55Z</time></trkpt>
<trkpt lat="47.37738130" lon="7.06470250"><ele>693.728516</ele><time>2007-06-19T16:19:04Z</time></trkpt>
<trkpt lat="47.37626550" lon="7.06425190"><ele>714.396729</ele><time>2007-06-19T16:20:32Z</time></trkpt>
<trkpt lat="47.37611530" lon="7.06427340"><ele>715.358154</ele><time>2007-06-19T16:20:45Z</time></trkpt>
<trkpt lat="47.37609390" lon="7.06416610"><ele>717.281006</ele><time>2007-06-19T16:20:51Z</time></trkpt>
<trkpt lat="47.37592220" lon="7.06405880"><ele>715.838867</ele><time>2007-06-19T16:21:06Z</time></trkpt>
<trkpt lat="47.37585780" lon="7.06393000"><ele>715.358154</ele><time>2007-06-19T16:21:19Z</time></trkpt>
<trkpt lat="47.37577200" lon="7.06339360"><ele>723.529541</ele><time>2007-06-19T16:21:53Z</time></trkpt>
<trkpt lat="47.37577200" lon="7.06305030"><ele>732.662109</ele><time>2007-06-19T16:22:14Z</time></trkpt>
<trkpt lat="47.37564330" lon="7.06253530"><ele>734.584717</ele><time>2007-06-19T16:22:38Z</time></trkpt>
<trkpt lat="47.37555740" lon="7.06150530"><ele>746.120361</ele><time>2007-06-19T16:23:32Z</time></trkpt>
<trkpt lat="47.37538580" lon="7.06084010"><ele>748.523682</ele><time>2007-06-19T16:24:14Z</time></trkpt>
<trkpt lat="47.37491370" lon="7.05985310"><ele>757.65625</ele><time>2007-06-19T16:25:15Z</time></trkpt>
<trkpt lat="47.37484930" lon="7.05953120"><ele>757.65625</ele><time>2007-06-19T16:25:31Z</time></trkpt>
<trkpt lat="47.37482790" lon="7.05903770"><ele>765.827637</ele><time>2007-06-19T16:26:00Z</time></trkpt>
<trkpt lat="47.37463470" lon="7.05835100"><ele>760.540039</ele><time>2007-06-19T16:26:32Z</time></trkpt>
<trkpt lat="47.37446310" lon="7.05755710"><ele>763.904541</ele><time>2007-06-19T16:27:18Z</time></trkpt>
<trkpt lat="47.37422700" lon="7.05687050"><ele>768.230713</ele><time>2007-06-19T16:28:00Z</time></trkpt>
<trkpt lat="47.37407680" lon="7.05618380"><ele>773.037354</ele><time>2007-06-19T16:28:39Z</time></trkpt>
<trkpt lat="47.37386230" lon="7.05554010"><ele>771.114746</ele><time>2007-06-19T16:29:08Z</time></trkpt>
<trkpt lat="47.37388370" lon="7.05538990"><ele>772.075928</ele><time>2007-06-19T16:29:19Z</time></trkpt>
<trkpt lat="47.37326150" lon="7.05369470"><ele>790.341064</ele><time>2007-06-19T16:30:36Z</time></trkpt>
<trkpt lat="47.37345460" lon="7.05348010"><ele>790.341064</ele><time>2007-06-19T16:30:50Z</time></trkpt>
<trkpt lat="47.37384080" lon="7.05266480"><ele>793.705566</ele><time>2007-06-19T16:31:16Z</time></trkpt>
<trkpt lat="47.37399100" lon="7.05206390"><ele>796.109131</ele><time>2007-06-19T16:31:30Z</time></trkpt>
<trkpt lat="47.37403390" lon="7.05174210"><ele>796.109131</ele><time>2007-06-19T16:31:36Z</time></trkpt>
<trkpt lat="47.37437730" lon="7.05187080"><ele>796.109131</ele><time>2007-06-19T16:31:41Z</time></trkpt>
<trkpt lat="47.37459180" lon="7.05139880"><ele>797.070313</ele><time>2007-06-19T16:31:51Z</time></trkpt>
<trkpt lat="47.37444160" lon="7.04942460"><ele>800.435059</ele><time>2007-06-19T16:32:05Z</time></trkpt>
<trkpt lat="47.37446310" lon="7.04854490"><ele>800.915527</ele><time>2007-06-19T16:32:22Z</time></trkpt>
<trkpt lat="47.37442020" lon="7.04751490"><ele>800.915527</ele><time>2007-06-19T16:32:45Z</time></trkpt>
<trkpt lat="47.37448450" lon="7.04745050"><ele>800.915527</ele><time>2007-06-19T16:32:54Z</time></trkpt>
<trkpt lat="47.37442020" lon="7.04708580"><ele>800.915527</ele><time>2007-06-19T16:33:05Z</time></trkpt>
<trkpt lat="47.37435580" lon="7.04642060"><ele>802.838135</ele><time>2007-06-19T16:33:26Z</time></trkpt>
<trkpt lat="47.37433430" lon="7.04586270"><ele>803.799561</ele><time>2007-06-19T16:33:43Z</time></trkpt>
<trkpt lat="47.37433430" lon="7.04581980"><ele>803.318848</ele><time>2007-06-19T16:33:45Z</time></trkpt>
<trkpt lat="47.37448450" lon="7.04579830"><ele>803.318848</ele><time>2007-06-19T16:33:52Z</time></trkpt>
<trkpt lat="47.37450600" lon="7.04575540"><ele>803.318848</ele><time>2007-06-19T16:33:54Z</time></trkpt>
<trkpt lat="47.37431290" lon="7.04448940"><ele>802.838135</ele><time>2007-06-19T16:34:14Z</time></trkpt>
<trkpt lat="47.37429140" lon="7.04328780"><ele>804.760742</ele><time>2007-06-19T16:34:41Z</time></trkpt>
<trkpt lat="47.37444160" lon="7.04315900"><ele>806.68335</ele><time>2007-06-19T16:34:52Z</time></trkpt>
<trkpt lat="47.37442020" lon="7.04221490"><ele>810.047852</ele><time>2007-06-19T16:35:24Z</time></trkpt>
<trkpt lat="47.37446310" lon="7.04157110"><ele>811.970703</ele><time>2007-06-19T16:35:48Z</time></trkpt>
<trkpt lat="47.37437730" lon="7.04097030"><ele>817.738525</ele><time>2007-06-19T16:36:09Z</time></trkpt>
<trkpt lat="47.37431290" lon="7.03953270"><ele>826.390381</ele><time>2007-06-19T16:36:57Z</time></trkpt>
<trkpt lat="47.37424850" lon="7.03938250"><ele>827.832275</ele><time>2007-06-19T16:37:04Z</time></trkpt>
<trkpt lat="47.37414120" lon="7.03828810"><ele>835.522949</ele><time>2007-06-19T16:37:36Z</time></trkpt>
<trkpt lat="47.37416270" lon="7.03753710"><ele>841.290771</ele><time>2007-06-19T16:37:56Z</time></trkpt>
<trkpt lat="47.37403390" lon="7.03723670"><ele>842.252197</ele><time>2007-06-19T16:38:08Z</time></trkpt>
<trkpt lat="47.37394810" lon="7.03717230"><ele>842.252197</ele><time>2007-06-19T16:38:15Z</time></trkpt>
<trkpt lat="47.37384080" lon="7.03818080"><ele>842.252197</ele><time>2007-06-19T16:38:49Z</time></trkpt>
<trkpt lat="47.37364770" lon="7.03854560"><ele>844.655518</ele><time>2007-06-19T16:39:10Z</time></trkpt>
<trkpt lat="47.37339020" lon="7.03970430"><ele>845.13623</ele><time>2007-06-19T16:40:25Z</time></trkpt>
<trkpt lat="47.37332580" lon="7.04015490"><ele>850.904053</ele><time>2007-06-19T16:40:44Z</time></trkpt>
<trkpt lat="47.37317560" lon="7.04064850"><ele>856.191162</ele><time>2007-06-19T16:41:07Z</time></trkpt>
<trkpt lat="47.37276790" lon="7.04116340"><ele>856.191162</ele><time>2007-06-19T16:41:43Z</time></trkpt>
<trkpt lat="47.37248900" lon="7.04172130"><ele>855.710693</ele><time>2007-06-19T16:42:07Z</time></trkpt>
<trkpt lat="47.37236020" lon="7.04236510"><ele>855.710693</ele><time>2007-06-19T16:42:17Z</time></trkpt>
<trkpt lat="47.37214570" lon="7.04384570"><ele>856.671875</ele><time>2007-06-19T16:42:22Z</time></trkpt>
<trkpt lat="47.37201690" lon="7.04513310"><ele>856.671875</ele><time>2007-06-19T16:42:39Z</time></trkpt>
<trkpt lat="47.37205980" lon="7.04738620"><ele>860.036621</ele><time>2007-06-19T16:43:09Z</time></trkpt>
<trkpt lat="47.37165210" lon="7.04993960"><ele>858.594482</ele><time>2007-06-19T16:43:43Z</time></trkpt>
<trkpt lat="47.37128730" lon="7.05193520"><ele>858.594482</ele><time>2007-06-19T16:44:10Z</time></trkpt>
<trkpt lat="47.37062220" lon="7.05103400"><ele>860.517334</ele><time>2007-06-19T16:44:24Z</time></trkpt>
<trkpt lat="47.37010720" lon="7.05124860"><ele>863.881836</ele><time>2007-06-19T16:44:42Z</time></trkpt>
<trkpt lat="47.37010720" lon="7.05131290"><ele>863.401367</ele><time>2007-06-19T16:44:51Z</time></trkpt>
<trkpt lat="47.37008570" lon="7.05131290"><ele>861.959473</ele><time>2007-06-19T16:47:13Z</time></trkpt>
<trkpt lat="47.37077240" lon="7.05300810"><ele>861.47876</ele><time>2007-06-19T16:47:54Z</time></trkpt>
<trkpt lat="47.37175940" lon="7.05566880"><ele>855.710693</ele><time>2007-06-19T16:48:25Z</time></trkpt>
<trkpt lat="47.37306830" lon="7.05783610"><ele>855.710693</ele><time>2007-06-19T16:48:46Z</time></trkpt>
<trkpt lat="47.37405540" lon="7.06019640"><ele>855.710693</ele><time>2007-06-19T16:49:06Z</time></trkpt>
<trkpt lat="47.37418410" lon="7.06060410"><ele>854.749268</ele><time>2007-06-19T16:49:09Z</time></trkpt>
<trkpt lat="47.37431290" lon="7.06120490"><ele>852.345947</ele><time>2007-06-19T16:49:13Z</time></trkpt>
<trkpt lat="47.37418410" lon="7.06502440"><ele>848.981445</ele><time>2007-06-19T16:49:35Z</time></trkpt>
<trkpt lat="47.37478490" lon="7.06927300"><ele>848.500732</ele><time>2007-06-19T16:50:03Z</time></trkpt>
<trkpt lat="47.37551450" lon="7.07034590"><ele>843.213379</ele><time>2007-06-19T16:50:16Z</time></trkpt>
<trkpt lat="47.37583640" lon="7.07094670"><ele>843.213379</ele><time>2007-06-19T16:50:22Z</time></trkpt>
<trkpt lat="47.37693070" lon="7.07247020"><ele>830.716553</ele><time>2007-06-19T16:50:37Z</time></trkpt>
<trkpt lat="47.37710240" lon="7.07257750"><ele>830.716553</ele><time>2007-06-19T16:50:39Z</time></trkpt>
<trkpt lat="47.37879750" lon="7.07079650"><ele>830.716553</ele><time>2007-06-19T16:51:03Z</time></trkpt>
<trkpt lat="47.37871170" lon="7.06770660"><ele>748.523682</ele><time>2007-06-19T16:51:11Z</time></trkpt>
<trkpt lat="47.37899070" lon="7.06596850"><ele>740.352539</ele><time>2007-06-19T16:51:20Z</time></trkpt>
<trkpt lat="47.37911940" lon="7.06483130"><ele>737.468506</ele><time>2007-06-19T16:51:26Z</time></trkpt>
<trkpt lat="47.37918380" lon="7.06453080"><ele>736.987793</ele><time>2007-06-19T16:51:28Z</time></trkpt>
<trkpt lat="47.37946270" lon="7.06459520"><ele>736.026611</ele><time>2007-06-19T16:51:32Z</time></trkpt>
<trkpt lat="47.37954850" lon="7.06500290"><ele>736.026611</ele><time>2007-06-19T16:51:35Z</time></trkpt>
<trkpt lat="47.37961290" lon="7.06558230"><ele>735.545898</ele><time>2007-06-19T16:51:39Z</time></trkpt>
<trkpt lat="47.37999920" lon="7.06665520"><ele>735.06543</ele><time>2007-06-19T16:51:47Z</time></trkpt>
<trkpt lat="47.38064290" lon="7.06867220"><ele>734.584717</ele><time>2007-06-19T16:52:01Z</time></trkpt>
<trkpt lat="47.38120080" lon="7.07077500"><ele>734.584717</ele><time>2007-06-19T16:52:15Z</time></trkpt>
<trkpt lat="47.38184450" lon="7.07738400"><ele>731.219971</ele><time>2007-06-19T16:52:55Z</time></trkpt>
<trkpt lat="47.37881900" lon="7.07826380"><ele>731.219971</ele><time>2007-06-19T16:53:01Z</time></trkpt>
<trkpt lat="47.38098620" lon="7.07920790"><ele>731.219971</ele><time>2007-06-19T16:53:13Z</time></trkpt>
<trkpt lat="47.38197330" lon="7.08219050"><ele>731.219971</ele><time>2007-06-19T16:53:23Z</time></trkpt>
<trkpt lat="47.38205910" lon="7.08255530"><ele>731.219971</ele><time>2007-06-19T16:53:25Z</time></trkpt>
<trkpt lat="47.38141540" lon="7.08302740"><ele>636.049561</ele><time>2007-06-19T16:53:29Z</time></trkpt>
<trkpt lat="47.38122220" lon="7.08330630"><ele>635.568604</ele><time>2007-06-19T16:53:31Z</time></trkpt>
<trkpt lat="47.38220930" lon="7.08489420"><ele>618.264893</ele><time>2007-06-19T16:53:43Z</time></trkpt>
<trkpt lat="47.38238100" lon="7.08532330"><ele>617.303711</ele><time>2007-06-19T16:53:46Z</time></trkpt>
<trkpt lat="47.38308910" lon="7.08575250"><ele>611.055176</ele><time>2007-06-19T16:53:53Z</time></trkpt>
<trkpt lat="47.38351820" lon="7.08547350"><ele>608.171387</ele><time>2007-06-19T16:53:58Z</time></trkpt>
<trkpt lat="47.38424780" lon="7.08307030"><ele>591.828857</ele><time>2007-06-19T16:54:14Z</time></trkpt>
<trkpt lat="47.38514900" lon="7.08139660"><ele>578.851074</ele><time>2007-06-19T16:54:27Z</time></trkpt>
<trkpt lat="47.38551380" lon="7.08094600"><ele>575.005859</ele><time>2007-06-19T16:54:32Z</time></trkpt>
<trkpt lat="47.38654380" lon="7.08000180"><ele>571.1604</ele><time>2007-06-19T16:54:44Z</time></trkpt>
<trkpt lat="47.38710170" lon="7.07993750"><ele>568.276367</ele><time>2007-06-19T16:54:50Z</time></trkpt>
<trkpt lat="47.38744500" lon="7.08013060"><ele>565.392578</ele><time>2007-06-19T16:54:54Z</time></trkpt>
<trkpt lat="47.38783120" lon="7.08004470"><ele>563.469971</ele><time>2007-06-19T16:54:59Z</time></trkpt>
<trkpt lat="47.38806720" lon="7.07976580"><ele>561.547363</ele><time>2007-06-19T16:55:03Z</time></trkpt>
<trkpt lat="47.38815310" lon="7.07935810"><ele>561.06665</ele><time>2007-06-19T16:55:07Z</time></trkpt>
<trkpt lat="47.38819600" lon="7.07843540"><ele>560.105225</ele><time>2007-06-19T16:55:15Z</time></trkpt>
<trkpt lat="47.38841060" lon="7.07807060"><ele>557.702148</ele><time>2007-06-19T16:55:21Z</time></trkpt>
<trkpt lat="47.38931180" lon="7.07882170"><ele>552.414551</ele><time>2007-06-19T16:55:37Z</time></trkpt>
<trkpt lat="47.39021300" lon="7.08004470"><ele>544.243652</ele><time>2007-06-19T16:55:52Z</time></trkpt>
<trkpt lat="47.39062070" lon="7.08034520"><ele>540.878906</ele><time>2007-06-19T16:55:57Z</time></trkpt>
<trkpt lat="47.39188670" lon="7.08079580"><ele>530.304443</ele><time>2007-06-19T16:56:11Z</time></trkpt>
<trkpt lat="47.39295960" lon="7.08088160"><ele>522.133179</ele><time>2007-06-19T16:56:22Z</time></trkpt>
<trkpt lat="47.39757300" lon="7.08081720"><ele>497.619629</ele><time>2007-06-19T16:57:11Z</time></trkpt>
<trkpt lat="47.39765880" lon="7.08077430"><ele>496.658325</ele><time>2007-06-19T16:57:12Z</time></trkpt>
<trkpt lat="47.39817380" lon="7.08032370"><ele>492.332397</ele><time>2007-06-19T16:57:18Z</time></trkpt>
<trkpt lat="47.39907500" lon="7.07877870"><ele>485.122437</ele><time>2007-06-19T16:57:31Z</time></trkpt>
<trkpt lat="47.39952560" lon="7.07845690"><ele>481.757813</ele><time>2007-06-19T16:57:36Z</time></trkpt>
<trkpt lat="47.39969730" lon="7.07849980"><ele>480.315918</ele><time>2007-06-19T16:57:38Z</time></trkpt>
<trkpt lat="47.40113500" lon="7.07912210"><ele>467.818726</ele><time>2007-06-19T16:57:53Z</time></trkpt>
<trkpt lat="47.40160700" lon="7.07965850"><ele>461.57019</ele><time>2007-06-19T16:57:59Z</time></trkpt>
<trkpt lat="47.40190740" lon="7.08010910"><ele>458.686157</ele><time>2007-06-19T16:58:03Z</time></trkpt>
<trkpt lat="47.40250830" lon="7.08032370"><ele>454.360229</ele><time>2007-06-19T16:58:09Z</time></trkpt>
<trkpt lat="47.40379570" lon="7.07987310"><ele>448.111816</ele><time>2007-06-19T16:58:22Z</time></trkpt>
<trkpt lat="47.40422490" lon="7.07980870"><ele>449.072998</ele><time>2007-06-19T16:58:27Z</time></trkpt>
<trkpt lat="47.40448240" lon="7.07968000"><ele>448.592407</ele><time>2007-06-19T16:58:31Z</time></trkpt>
<trkpt lat="47.40624190" lon="7.07809210"><ele>445.227661</ele><time>2007-06-19T16:59:04Z</time></trkpt>
<trkpt lat="47.40634920" lon="7.07802770"><ele>444.74707</ele><time>2007-06-19T16:59:06Z</time></trkpt>
<trkpt lat="47.40707870" lon="7.07800630"><ele>444.74707</ele><time>2007-06-19T16:59:18Z</time></trkpt>
<trkpt lat="47.40791560" lon="7.07807060"><ele>445.227661</ele><time>2007-06-19T16:59:32Z</time></trkpt>
<trkpt lat="47.40868810" lon="7.07796340"><ele>441.863159</ele><time>2007-06-19T16:59:43Z</time></trkpt>
<trkpt lat="47.40986820" lon="7.07757710"><ele>439.94043</ele><time>2007-06-19T17:00:00Z</time></trkpt>
<trkpt lat="47.41132740" lon="7.07753420"><ele>438.017822</ele><time>2007-06-19T17:00:23Z</time></trkpt>
<trkpt lat="47.41149900" lon="7.07725520"><ele>437.537109</ele><time>2007-06-19T17:00:28Z</time></trkpt>
<trkpt lat="47.41218570" lon="7.07633260"><ele>436.095215</ele><time>2007-06-19T17:00:45Z</time></trkpt>
<trkpt lat="47.41237880" lon="7.07622530"><ele>436.095215</ele><time>2007-06-19T17:00:49Z</time></trkpt>
<trkpt lat="47.41291520" lon="7.07611800"><ele>438.498535</ele><time>2007-06-19T17:01:01Z</time></trkpt>
<trkpt lat="47.41325860" lon="7.07609650"><ele>440.901855</ele><time>2007-06-19T17:01:14Z</time></trkpt>
<trkpt lat="47.41349460" lon="7.07577470"><ele>444.266479</ele><time>2007-06-19T17:01:25Z</time></trkpt>
<trkpt lat="47.41358040" lon="7.07532410"><ele>447.630981</ele><time>2007-06-19T17:01:35Z</time></trkpt>
<trkpt lat="47.41396670" lon="7.07502370"><ele>451.476318</ele><time>2007-06-19T17:01:46Z</time></trkpt>
<trkpt lat="47.41446020" lon="7.07476620"><ele>451.476318</ele><time>2007-06-19T17:01:56Z</time></trkpt>
<trkpt lat="47.41456750" lon="7.07485200"><ele>451.957031</ele><time>2007-06-19T17:02:00Z</time></trkpt>
<trkpt lat="47.41480350" lon="7.07545280"><ele>450.034424</ele><time>2007-06-19T17:02:14Z</time></trkpt>
<trkpt lat="47.41506100" lon="7.07588200"><ele>449.072998</ele><time>2007-06-19T17:02:34Z</time></trkpt>
</trkseg></trk></gpx>